Time;durP1;ratioP1;P1;durP2;ratioP2;P2;SDS_P1;SDS_P2;PMS_P1;PMS_P2;Temp;Humidity;BMP_temperature;BMP_pressure;BME280_temperature;BME280_humidity;BME280_pressure;Samples;Min_cycle;Max_cycle;Signal;HPM_P1;HPM_P2
2022/02/28 00:02:00;;;;;;;16.48;6.57;;;2.10;99.90;;;;;;6186816;23;20403;-82
2022/02/28 00:04:26;;;;;;;15.02;6.50;;;2.10;99.90;;;;;;6188823;23;20008;-82
2022/02/28 00:06:53;;;;;;;13.45;6.72;;;2.10;99.90;;;;;;6188382;23;20289;-81
2022/02/28 00:09:20;;;;;;;13.32;6.60;;;2.00;99.90;;;;;;6187743;23;20012;-81
2022/02/28 00:11:45;;;;;;;15.85;6.40;;;2.00;99.90;;;;;;6163182;23;20012;-80
2022/02/28 00:14:11;;;;;;;11.85;6.72;;;2.00;99.90;;;;;;6187619;23;20028;-79
2022/02/28 00:16:37;;;;;;;14.60;6.72;;;2.10;99.90;;;;;;6163007;23;20047;-79
2022/02/28 00:19:03;;;;;;;14.93;6.65;;;2.00;99.90;;;;;;6188173;23;20435;-81
2022/02/28 00:21:29;;;;;;;13.95;6.28;;;1.90;99.90;;;;;;6160011;23;20096;-80
2022/02/28 00:23:55;;;;;;;13.82;7.50;;;1.90;99.90;;;;;;6161866;23;20020;-80
2022/02/28 00:26:20;;;;;;;15.88;7.05;;;2.60;99.90;;;;;;6162152;23;20062;-78
2022/02/28 00:28:46;;;;;;;16.27;6.90;;;1.80;99.90;;;;;;6157293;23;20040;-81
2022/02/28 00:31:12;;;;;;;15.45;7.22;;;1.70;99.90;;;;;;6187685;23;20020;-83
2022/02/28 00:33:38;;;;;;;12.23;6.70;;;1.70;99.90;;;;;;6162816;23;20020;-79
2022/02/28 00:36:04;;;;;;;14.45;6.78;;;1.60;99.90;;;;;;6189115;23;20071;-79
2022/02/28 00:38:31;;;;;;;16.13;7.43;;;1.70;99.90;;;;;;6188707;23;20059;-79
2022/02/28 00:40:56;;;;;;;16.95;6.90;;;1.60;99.90;;;;;;6164521;23;20018;-82
2022/02/28 00:43:22;;;;;;;14.63;6.47;;;1.80;99.90;;;;;;6163107;23;20047;-82
2022/02/28 00:45:47;;;;;;;16.52;7.38;;;1.60;99.90;;;;;;6189394;23;20409;-81
2022/02/28 00:48:13;;;;;;;14.48;7.47;;;1.50;99.90;;;;;;6163308;23;20020;-82
2022/02/28 00:50:39;;;;;;;16.20;6.97;;;1.60;99.90;;;;;;6189354;23;20098;-80
2022/02/28 00:53:04;;;;;;;15.00;7.32;;;1.60;99.90;;;;;;6188069;23;20020;-84
2022/02/28 00:55:30;;;;;;;12.55;6.90;;;1.70;99.90;;;;;;6215131;23;20028;-79
2022/02/28 00:58:08;;;;;;;15.63;7.55;;;1.50;99.90;;;;;;6161024;23;20013;-82
2022/02/28 01:00:35;;;;;;;13.57;7.60;;;1.40;99.90;;;;;;6169135;23;20021;-80
2022/02/28 01:03:01;;;;;;;15.30;7.43;;;1.60;99.90;;;;;;6135499;23;20156;-78
2022/02/28 01:05:27;;;;;;;20.48;8.05;;;1.40;99.90;;;;;;6158409;23;20092;-80
2022/02/28 01:07:53;;;;;;;12.95;7.10;;;1.30;99.90;;;;;;6157380;23;20047;-80
2022/02/28 01:10:21;;;;;;;16.65;7.50;;;1.40;99.90;;;;;;6157252;23;20099;-82
2022/02/28 01:12:48;;;;;;;14.90;7.35;;;1.30;99.90;;;;;;6157362;23;20032;-82
2022/02/28 01:15:15;;;;;;;18.13;7.88;;;1.30;99.90;;;;;;6155834;23;20048;-80
2022/02/28 01:17:42;;;;;;;17.27;8.10;;;1.30;99.90;;;;;;6133835;23;20445;-79
2022/02/28 01:20:09;;;;;;;18.50;7.93;;;1.30;99.90;;;;;;6157745;23;20028;-82
2022/02/28 01:22:35;;;;;;;14.88;7.53;;;1.30;99.90;;;;;;6156856;23;20032;-83
2022/02/28 01:25:02;;;;;;;15.20;7.80;;;1.30;99.90;;;;;;6157151;23;20084;-83
2022/02/28 01:27:27;;;;;;;16.00;7.70;;;1.30;99.90;;;;;;6156916;23;20009;-80
2022/02/28 01:29:53;;;;;;;17.20;8.25;;;1.20;99.90;;;;;;6130947;23;20088;-81
2022/02/28 01:32:18;;;;;;;14.68;7.85;;;1.20;99.90;;;;;;6157151;23;20012;-79
2022/02/28 01:34:44;;;;;;;12.25;7.45;;;1.30;99.90;;;;;;6157048;23;20367;-81
2022/02/28 01:37:10;;;;;;;17.15;7.35;;;1.30;99.90;;;;;;6157332;23;20386;-80
2022/02/28 01:39:35;;;;;;;16.77;7.40;;;1.30;99.90;;;;;;6156475;23;20012;-83
2022/02/28 01:42:01;;;;;;;13.32;7.07;;;1.30;99.90;;;;;;6157424;23;20016;-82
2022/02/28 01:44:27;;;;;;;14.68;7.40;;;1.30;99.90;;;;;;6156026;23;20013;-82
2022/02/28 01:46:53;;;;;;;15.73;8.18;;;1.30;99.90;;;;;;6158061;23;20009;-81
2022/02/28 01:49:18;;;;;;;13.15;7.25;;;1.20;99.90;;;;;;6157224;23;20402;-84
2022/02/28 01:51:45;;;;;;;14.13;6.90;;;1.20;99.90;;;;;;6157592;23;20028;-80
2022/02/28 01:54:11;;;;;;;19.52;8.00;;;1.30;99.90;;;;;;6157456;23;20091;-83
2022/02/28 01:56:37;;;;;;;18.25;8.30;;;1.10;99.90;;;;;;6157485;23;20044;-81
2022/02/28 01:59:04;;;;;;;13.60;7.55;;;1.10;99.90;;;;;;6155740;23;20009;-82
2022/02/28 02:01:29;;;;;;;14.90;8.07;;;1.20;99.90;;;;;;6157436;23;20071;-81
2022/02/28 02:03:55;;;;;;;16.42;7.43;;;1.10;99.90;;;;;;6157049;23;20013;-82
2022/02/28 02:06:21;;;;;;;16.73;7.43;;;1.10;99.90;;;;;;6157144;23;20287;-78
2022/02/28 02:08:48;;;;;;;14.23;7.57;;;1.10;99.90;;;;;;6156854;23;20444;-80
2022/02/28 02:11:14;;;;;;;15.85;7.28;;;1.10;99.90;;;;;;6157855;23;20017;-83
2022/02/28 02:13:40;;;;;;;17.00;7.60;;;1.00;99.90;;;;;;6155036;23;20112;-79
2022/02/28 02:16:06;;;;;;;18.30;7.65;;;1.00;99.90;;;;;;6132514;23;20048;-81
2022/02/28 02:18:32;;;;;;;13.48;7.25;;;1.00;99.90;;;;;;6157602;23;20017;-80
2022/02/28 02:20:58;;;;;;;14.18;8.00;;;1.00;99.90;;;;;;6157080;23;20096;-79
2022/02/28 02:23:27;;;;;;;13.27;7.55;;;0.90;99.90;;;;;;6157278;23;20017;-80
2022/02/28 02:25:53;;;;;;;14.93;7.70;;;0.90;99.90;;;;;;6133769;23;20013;-82
2022/02/28 02:28:19;;;;;;;20.55;8.32;;;0.90;99.90;;;;;;6156272;23;20071;-79
2022/02/28 02:30:51;;;;;;;16.70;7.88;;;0.70;99.90;;;;;;6182034;23;20345;-80
2022/02/28 02:33:18;;;;;;;15.50;7.50;;;0.70;99.90;;;;;;6157336;23;20020;-81
2022/02/28 02:35:55;;;;;;;14.18;7.60;;;0.60;99.90;;;;;;6132747;23;20013;-81
2022/02/28 02:38:22;;;;;;;14.45;7.57;;;0.60;99.90;;;;;;6157339;23;20493;-79
2022/02/28 02:40:48;;;;;;;13.07;7.60;;;0.60;99.90;;;;;;6157352;23;20019;-79
2022/02/28 02:43:14;;;;;;;16.30;8.15;;;0.60;99.90;;;;;;6132722;23;20846;-83
2022/02/28 02:45:40;;;;;;;18.98;8.18;;;0.50;99.90;;;;;;6156453;23;20013;-81
2022/02/28 02:48:18;;;;;;;15.88;7.90;;;0.50;99.90;;;;;;6157474;23;20464;-80
2022/02/28 02:50:43;;;;;;;13.70;8.10;;;0.50;99.90;;;;;;6156803;23;20047;-82
2022/02/28 02:53:10;;;;;;;17.10;8.38;;;0.40;99.90;;;;;;6131731;23;20021;-82
2022/02/28 02:55:37;;;;;;;17.17;8.38;;;0.40;99.90;;;;;;6157306;23;20080;-80
2022/02/28 02:58:03;;;;;;;16.25;8.52;;;0.40;99.90;;;;;;6156668;23;20020;-77
2022/02/28 03:00:29;;;;;;;16.48;9.10;;;0.40;99.90;;;;;;6156482;23;20091;-80
2022/02/28 03:02:55;;;;;;;15.73;8.88;;;0.30;99.90;;;;;;6157384;23;20037;-78
2022/02/28 03:05:21;;;;;;;14.45;9.15;;;0.40;99.90;;;;;;6156807;23;20013;-77
2022/02/28 03:07:47;;;;;;;17.65;8.80;;;0.30;99.90;;;;;;6156554;23;20069;-82
2022/02/28 03:10:13;;;;;;;17.52;8.77;;;0.30;99.90;;;;;;6157336;23;20040;-83
2022/02/28 03:12:41;;;;;;;16.20;9.60;;;0.30;99.90;;;;;;6182916;23;20307;-81
2022/02/28 03:15:07;;;;;;;17.27;9.63;;;0.20;99.90;;;;;;6156486;23;20020;-81
2022/02/28 03:17:34;;;;;;;19.20;10.32;;;0.20;99.90;;;;;;6187467;23;20039;-80
2022/02/28 03:19:59;;;;;;;18.23;9.32;;;0.20;99.90;;;;;;6132327;23;20398;-80
2022/02/28 03:22:25;;;;;;;16.98;9.02;;;0.20;99.90;;;;;;6156303;23;20017;-80
2022/02/28 03:24:51;;;;;;;18.35;9.88;;;0.10;99.90;;;;;;6157159;23;20015;-79
2022/02/28 03:27:17;;;;;;;18.98;10.15;;;0.10;99.90;;;;;;6157155;23;20505;-80
2022/02/28 03:29:42;;;;;;;18.45;10.07;;;0.10;99.90;;;;;;6155929;23;20494;-80
2022/02/28 03:32:08;;;;;;;19.55;10.23;;;0.20;99.90;;;;;;6157308;23;20016;-81
2022/02/28 03:34:34;;;;;;;18.02;9.68;;;0.10;99.90;;;;;;6157411;23;20174;-80
2022/02/28 03:36:59;;;;;;;18.83;9.85;;;0.10;99.90;;;;;;6157221;23;20052;-81
2022/02/28 03:39:26;;;;;;;18.45;10.10;;;0.10;99.90;;;;;;6161576;23;20079;-80
2022/02/28 03:41:55;;;;;;;17.00;9.70;;;0.20;99.90;;;;;;6131801;23;20021;-77
2022/02/28 03:44:21;;;;;;;19.85;10.43;;;0.20;99.90;;;;;;6155938;23;20067;-81
2022/02/28 03:46:48;;;;;;;18.23;10.23;;;0.20;99.90;;;;;;6157141;23;20039;-82
2022/02/28 03:49:18;;;;;;;18.38;9.55;;;0.10;99.90;;;;;;6156639;23;20422;-77
2022/02/28 03:51:44;;;;;;;19.83;10.20;;;0.20;99.90;;;;;;6156901;23;20064;-78
2022/02/28 03:54:11;;;;;;;22.55;10.27;;;0.20;99.90;;;;;;6156738;23;20013;-81
2022/02/28 03:56:41;;;;;;;17.02;9.80;;;0.70;99.90;;;;;;6132105;23;20268;-81
2022/02/28 03:59:08;;;;;;;21.08;10.48;;;0.30;99.90;;;;;;6156807;23;20013;-82
2022/02/28 04:01:34;;;;;;;17.38;9.98;;;0.20;99.90;;;;;;6186684;23;20282;-81
2022/02/28 04:04:02;;;;;;;16.80;10.20;;;0.20;99.90;;;;;;6186740;23;20347;-82
2022/02/28 04:06:32;;;;;;;21.63;10.25;;;0.20;99.90;;;;;;6187667;23;20016;-81
2022/02/28 04:08:58;;;;;;;22.95;9.90;;;0.30;99.90;;;;;;6161082;23;20464;-79
2022/02/28 04:11:25;;;;;;;20.63;10.00;;;0.20;99.90;;;;;;6186527;23;20012;-81
2022/02/28 04:13:50;;;;;;;20.25;9.88;;;0.20;99.90;;;;;;6185643;23;20013;-78
2022/02/28 04:16:16;;;;;;;20.88;11.00;;;0.20;99.90;;;;;;6186480;23;20067;-82
2022/02/28 04:18:42;;;;;;;21.08;10.10;;;0.20;99.90;;;;;;6187050;23;20066;-82
2022/02/28 04:21:08;;;;;;;20.25;10.40;;;0.20;99.90;;;;;;6161464;23;20059;-82
2022/02/28 04:23:33;;;;;;;21.70;10.73;;;0.20;99.90;;;;;;6187184;23;20020;-79
2022/02/28 04:26:00;;;;;;;19.80;10.65;;;0.10;99.90;;;;;;6187341;23;20013;-83
2022/02/28 04:28:26;;;;;;;22.83;11.02;;;0.10;99.90;;;;;;6184842;23;20008;-78
2022/02/28 04:30:51;;;;;;;21.15;11.15;;;0.10;99.90;;;;;;6186342;23;20101;-80
2022/02/28 04:33:17;;;;;;;22.08;10.60;;;0.00;99.90;;;;;;6188601;23;20086;-80
2022/02/28 04:35:43;;;;;;;17.42;10.70;;;0.00;99.90;;;;;;6188651;23;20295;-79
2022/02/28 04:38:09;;;;;;;24.73;12.10;;;0.00;99.90;;;;;;6163225;23;20020;-79
2022/02/28 04:40:35;;;;;;;19.50;10.77;;;-0.10;99.90;;;;;;6189348;23;20085;-82
2022/02/28 04:43:01;;;;;;;24.25;11.77;;;-0.20;99.90;;;;;;6162916;23;20017;-78
2022/02/28 04:45:27;;;;;;;22.92;10.93;;;-0.10;99.90;;;;;;6214882;23;20381;-81
2022/02/28 04:47:54;;;;;;;19.23;10.32;;;-0.20;99.90;;;;;;6163153;23;20092;-79
2022/02/28 04:50:19;;;;;;;21.38;10.77;;;-0.30;99.90;;;;;;6187906;23;20096;-81
2022/02/28 04:52:45;;;;;;;19.98;10.60;;;-0.30;99.90;;;;;;6188313;23;20348;-81
2022/02/28 04:55:11;;;;;;;20.63;9.88;;;-0.30;99.90;;;;;;6188436;23;20020;-82
2022/02/28 04:57:39;;;;;;;23.48;11.30;;;-0.30;99.90;;;;;;6188013;23;20020;-82
2022/02/28 05:00:06;;;;;;;19.08;10.25;;;-0.40;99.90;;;;;;6186524;23;20056;-79
2022/02/28 05:02:31;;;;;;;20.17;10.48;;;-0.30;99.90;;;;;;6187772;23;20017;-79
2022/02/28 05:04:57;;;;;;;17.42;10.20;;;-0.40;99.90;;;;;;6163118;23;20011;-78
2022/02/28 05:07:23;;;;;;;17.38;9.75;;;-0.40;99.90;;;;;;6188321;23;20020;-79
2022/02/28 05:09:48;;;;;;;19.33;9.55;;;-0.40;99.90;;;;;;6162176;23;20365;-82
2022/02/28 05:12:14;;;;;;;16.77;9.10;;;-0.30;99.90;;;;;;6188053;23;20012;-80
2022/02/28 05:14:40;;;;;;;17.45;9.20;;;-0.40;99.90;;;;;;6186046;23;20096;-80
2022/02/28 05:17:05;;;;;;;17.17;9.50;;;-0.40;99.90;;;;;;6162812;23;20048;-80
2022/02/28 05:19:31;;;;;;;18.98;9.63;;;-0.40;99.90;;;;;;6201310;23;20016;-80
2022/02/28 05:21:57;;;;;;;16.63;9.00;;;-0.40;99.90;;;;;;6162230;23;20013;-77
2022/02/28 05:24:23;;;;;;;16.23;9.13;;;-0.40;99.90;;;;;;6187718;23;20021;-79
2022/02/28 05:26:48;;;;;;;24.52;9.93;;;-0.50;99.90;;;;;;6162989;23;20016;-78
2022/02/28 05:29:15;;;;;;;17.23;8.95;;;-0.50;99.90;;;;;;6161125;23;20008;-77
2022/02/28 05:31:40;;;;;;;14.45;9.00;;;-0.50;99.90;;;;;;6202937;23;20008;-79
2022/02/28 05:34:06;;;;;;;14.93;9.00;;;-0.50;99.90;;;;;;6187301;23;20044;-78
2022/02/28 05:36:33;;;;;;;21.70;9.38;;;-0.60;99.90;;;;;;6188158;23;20333;-80
2022/02/28 05:38:58;;;;;;;18.83;9.80;;;0.00;99.90;;;;;;6188150;23;20023;-81
2022/02/28 05:41:25;;;;;;;16.05;8.98;;;-0.60;99.90;;;;;;6188381;23;20008;-77
2022/02/28 05:43:50;;;;;;;18.48;9.75;;;-0.60;99.90;;;;;;6186465;23;20057;-82
2022/02/28 05:46:16;;;;;;;19.40;9.98;;;-0.60;99.90;;;;;;6161923;23;20013;-79
2022/02/28 05:48:42;;;;;;;16.75;9.45;;;-0.70;99.90;;;;;;6203269;23;20096;-77
2022/02/28 05:51:08;;;;;;;17.52;9.27;;;-0.60;99.90;;;;;;6159320;23;20020;-80
2022/02/28 05:53:33;;;;;;;15.85;9.40;;;-0.70;99.90;;;;;;6187315;23;20040;-78
2022/02/28 05:55:59;;;;;;;19.35;9.30;;;-0.60;99.90;;;;;;6187804;23;20063;-82
2022/02/28 05:58:25;;;;;;;16.00;9.27;;;-0.70;99.90;;;;;;6186559;23;20475;-80
2022/02/28 06:00:51;;;;;;;12.52;5.88;;;-0.60;99.90;;;;;;6154912;23;20020;-73
2022/02/28 06:03:17;;;;;;;25.17;9.93;;;0.10;99.90;;;;;;6187001;23;20124;-80
2022/02/28 06:05:42;;;;;;;19.52;9.18;;;0.70;99.90;;;;;;6160922;23;20017;-81
2022/02/28 06:08:08;;;;;;;21.42;8.75;;;0.40;99.90;;;;;;6160610;23;20431;-81
2022/02/28 06:10:34;;;;;;;17.17;9.40;;;0.20;99.90;;;;;;6160379;23;20087;-80
2022/02/28 06:12:59;;;;;;;15.25;9.18;;;-0.10;99.90;;;;;;6185961;23;20009;-79
2022/02/28 06:15:25;;;;;;;17.85;9.10;;;-0.20;99.90;;;;;;6185256;23;20020;-78
2022/02/28 06:17:51;;;;;;;14.57;8.88;;;-0.20;99.90;;;;;;6162712;23;20028;-81
2022/02/28 06:20:16;;;;;;;15.38;9.82;;;-0.20;99.90;;;;;;6161564;23;20012;-81
2022/02/28 06:22:44;;;;;;;18.08;9.13;;;-0.30;99.90;;;;;;6161917;23;20328;-81
2022/02/28 06:25:09;;;;;;;15.32;8.50;;;-0.30;99.90;;;;;;6186853;23;20441;-81
2022/02/28 06:27:35;;;;;;;17.33;9.70;;;-0.30;99.90;;;;;;6187410;23;20012;-81
2022/02/28 06:30:01;;;;;;;16.42;9.38;;;-0.30;99.90;;;;;;6161087;23;20016;-82
2022/02/28 06:32:26;;;;;;;17.90;9.10;;;-0.30;99.90;;;;;;6187354;23;20043;-79
2022/02/28 06:34:53;;;;;;;16.95;9.25;;;-0.30;99.90;;;;;;6162526;23;20016;-81
2022/02/28 06:37:19;;;;;;;18.58;10.13;;;-0.10;99.90;;;;;;6187515;23;20098;-82
2022/02/28 06:39:45;;;;;;;15.82;9.45;;;-0.30;99.90;;;;;;6162357;23;20437;-80
2022/02/28 06:42:11;;;;;;;16.63;9.07;;;-0.20;99.90;;;;;;6186948;23;20313;-80
2022/02/28 06:44:37;;;;;;;20.52;9.93;;;-0.20;99.90;;;;;;6186096;23;20009;-81
2022/02/28 06:47:03;;;;;;;14.85;9.13;;;-0.10;99.90;;;;;;6186534;23;20091;-80
2022/02/28 06:49:30;;;;;;;18.42;9.23;;;-0.20;99.90;;;;;;6173728;23;20035;-80
2022/02/28 06:51:56;;;;;;;17.33;8.60;;;-0.20;99.90;;;;;;6186351;23;20159;-79
2022/02/28 06:54:22;;;;;;;19.73;9.63;;;0.90;99.90;;;;;;6185351;23;20075;-79
2022/02/28 06:56:47;;;;;;;16.33;9.00;;;0.50;99.90;;;;;;6184938;23;20018;-80
2022/02/28 06:59:13;;;;;;;14.48;8.52;;;0.40;99.90;;;;;;6211608;23;20015;-79
2022/02/28 07:01:39;;;;;;;18.27;8.73;;;0.30;99.90;;;;;;6185360;23;20091;-80
2022/02/28 07:04:07;;;;;;;15.43;9.10;;;0.20;99.90;;;;;;6186119;23;20017;-79
2022/02/28 07:06:34;;;;;;;21.20;9.82;;;0.20;99.90;;;;;;6159913;23;20028;-79
2022/02/28 07:09:00;;;;;;;15.95;9.25;;;0.20;99.90;;;;;;6185546;23;20013;-80
2022/02/28 07:11:26;;;;;;;16.13;9.00;;;0.20;99.90;;;;;;6161640;23;20024;-78
2022/02/28 07:13:52;;;;;;;15.60;8.77;;;0.20;99.90;;;;;;6193697;23;20017;-81
2022/02/28 07:16:18;;;;;;;16.83;9.77;;;0.20;99.90;;;;;;6191419;23;20067;-78
2022/02/28 07:18:44;;;;;;;16.90;9.38;;;0.20;99.90;;;;;;6160277;23;20019;-81
2022/02/28 07:21:10;;;;;;;19.50;9.85;;;0.30;99.90;;;;;;6186495;23;20092;-77
2022/02/28 07:23:35;;;;;;;16.25;9.27;;;0.30;99.90;;;;;;6158761;23;20862;-79
2022/02/28 07:26:01;;;;;;;15.38;9.23;;;0.30;99.90;;;;;;6186392;23;20004;-81
2022/02/28 07:28:27;;;;;;;19.17;9.73;;;0.30;99.90;;;;;;6160246;23;20043;-78
2022/02/28 07:30:53;;;;;;;19.33;9.30;;;0.40;99.90;;;;;;6187092;23;20023;-81
2022/02/28 07:33:19;;;;;;;15.95;9.65;;;0.30;99.90;;;;;;6163023;23;20016;-78
2022/02/28 07:35:45;;;;;;;15.93;9.27;;;0.40;99.90;;;;;;6187102;23;20020;-80
2022/02/28 07:38:12;;;;;;;16.80;8.95;;;0.40;99.90;;;;;;6185181;23;20016;-79
2022/02/28 07:40:39;;;;;;;16.25;9.07;;;0.40;99.90;;;;;;6160626;23;20023;-80
2022/02/28 07:43:04;;;;;;;19.45;10.35;;;1.30;99.90;;;;;;6185461;23;20024;-81
2022/02/28 07:45:32;;;;;;;21.45;9.93;;;0.70;99.90;;;;;;6184359;23;20095;-81
2022/02/28 07:47:58;;;;;;;16.73;9.75;;;0.80;99.90;;;;;;6185474;23;20083;-80
2022/02/28 07:50:24;;;;;;;15.85;9.73;;;0.70;99.90;;;;;;6213063;23;20317;-80
2022/02/28 07:52:49;;;;;;;19.73;10.25;;;0.80;99.90;;;;;;6187747;23;20026;-85
2022/02/28 07:55:15;;;;;;;17.77;8.85;;;0.80;99.90;;;;;;6186562;23;20074;-78
2022/02/28 07:57:41;;;;;;;17.25;10.05;;;1.30;99.90;;;;;;6212360;23;20020;-80
2022/02/28 08:00:08;;;;;;;15.68;9.95;;;1.70;99.90;;;;;;6158410;23;20429;-79
2022/02/28 08:02:33;;;;;;;17.92;9.65;;;1.40;99.90;;;;;;6179598;23;20021;-81
2022/02/28 08:04:59;;;;;;;20.65;10.80;;;1.50;99.90;;;;;;6130127;23;20032;-81
2022/02/28 08:07:25;;;;;;;16.80;9.65;;;1.40;99.90;;;;;;6157264;23;20013;-79
2022/02/28 08:09:50;;;;;;;16.92;9.85;;;1.40;99.90;;;;;;6131954;23;20017;-79
2022/02/28 08:12:16;;;;;;;14.77;9.50;;;1.40;99.90;;;;;;6133426;23;20369;-80
2022/02/28 08:14:42;;;;;;;23.45;10.23;;;1.40;99.90;;;;;;6156635;23;20112;-80
2022/02/28 08:17:08;;;;;;;19.83;10.52;;;2.20;99.90;;;;;;6133757;23;20338;-81
2022/02/28 08:19:33;;;;;;;18.27;9.55;;;1.50;99.90;;;;;;6133174;23;20017;-82
2022/02/28 08:21:59;;;;;;;17.38;10.60;;;1.50;99.90;;;;;;6132043;23;20083;-78
2022/02/28 08:24:25;;;;;;;18.35;9.45;;;1.60;99.90;;;;;;6133856;23;20015;-81
2022/02/28 08:26:50;;;;;;;16.30;9.68;;;1.60;99.90;;;;;;6132996;23;20021;-78
2022/02/28 08:29:16;;;;;;;15.82;9.55;;;1.70;99.90;;;;;;6157455;23;20020;-81
2022/02/28 08:31:42;;;;;;;15.20;9.88;;;1.70;99.90;;;;;;6158179;23;20051;-81
2022/02/28 08:34:08;;;;;;;16.63;9.90;;;1.80;99.90;;;;;;6157901;23;20103;-78
2022/02/28 08:36:34;;;;;;;16.38;10.75;;;1.80;99.90;;;;;;6157964;23;20021;-82
2022/02/28 08:39:02;;;;;;;18.50;10.00;;;1.90;99.90;;;;;;6132382;23;20345;-81
2022/02/28 08:41:27;;;;;;;21.98;10.63;;;2.00;99.90;;;;;;6157966;23;20017;-80
2022/02/28 08:43:53;;;;;;;17.48;9.25;;;2.00;99.90;;;;;;6132329;23;20097;-75
2022/02/28 08:46:19;;;;;;;33.25;10.13;;;3.80;99.90;;;;;;6157237;23;20013;-79
2022/02/28 08:48:45;;;;;;;15.60;9.30;;;4.60;99.90;;;;;;6156613;23;20368;-78
2022/02/28 08:51:11;;;;;;;13.38;8.63;;;3.80;99.90;;;;;;6133654;23;20024;-82
2022/02/28 08:53:36;;;;;;;14.65;8.80;;;3.50;99.90;;;;;;6158179;23;20024;-79
2022/02/28 08:56:02;;;;;;;14.32;9.55;;;3.30;99.90;;;;;;6133145;23;20017;-80
2022/02/28 08:58:28;;;;;;;17.92;9.93;;;3.10;99.90;;;;;;6130823;23;20052;-81
2022/02/28 09:00:54;;;;;;;16.50;9.20;;;3.00;99.90;;;;;;6136401;23;20444;-81
2022/02/28 09:03:19;;;;;;;16.80;9.85;;;3.50;99.90;;;;;;6187854;23;20017;-79
2022/02/28 09:05:45;;;;;;;16.77;9.50;;;3.00;99.90;;;;;;6161925;23;20066;-80
2022/02/28 09:08:11;;;;;;;15.07;9.57;;;3.00;99.90;;;;;;6160026;23;20080;-80
2022/02/28 09:10:37;;;;;;;15.52;8.80;;;3.00;99.90;;;;;;6161416;23;20069;-83
2022/02/28 09:13:03;;;;;;;14.05;8.77;;;3.40;99.90;;;;;;6186860;23;20303;-86
2022/02/28 09:15:29;;;;;;;14.10;8.50;;;3.80;99.90;;;;;;6161427;23;20028;-81
2022/02/28 09:17:55;;;;;;;14.10;8.55;;;3.10;99.90;;;;;;6186543;23;20345;-84
2022/02/28 09:20:21;;;;;;;14.68;8.80;;;3.30;99.90;;;;;;6160582;23;20179;-81
2022/02/28 09:22:47;;;;;;;13.75;8.02;;;3.40;99.90;;;;;;6186820;23;20180;-79
2022/02/28 09:25:13;;;;;;;12.77;8.05;;;4.20;99.90;;;;;;6161685;23;20013;-80
2022/02/28 09:27:40;;;;;;;14.85;7.90;;;3.60;99.90;;;;;;6187151;23;20143;-81
2022/02/28 09:30:07;;;;;;;14.15;7.93;;;4.20;99.90;;;;;;6161144;23;20528;-81
2022/02/28 09:32:33;;;;;;;12.95;7.85;;;3.80;99.90;;;;;;6162362;23;20016;-83
2022/02/28 09:34:59;;;;;;;12.05;7.80;;;3.90;99.90;;;;;;6204931;23;20021;-79
2022/02/28 09:37:25;;;;;;;17.52;8.27;;;4.00;99.90;;;;;;6159667;23;20437;-81
2022/02/28 09:39:50;;;;;;;15.25;8.68;;;4.50;99.90;;;;;;6162360;23;20017;-81
2022/02/28 09:42:17;;;;;;;13.07;8.77;;;4.10;99.90;;;;;;6187663;23;20012;-80
2022/02/28 09:44:44;;;;;;;13.13;7.60;;;4.30;99.90;;;;;;6160929;23;20009;-81
2022/02/28 09:47:11;;;;;;;11.60;7.20;;;4.30;99.90;;;;;;6187377;23;20008;-82
2022/02/28 09:49:37;;;;;;;13.90;8.40;;;4.40;99.90;;;;;;6201918;23;20013;-82
2022/02/28 09:52:03;;;;;;;13.93;8.23;;;5.20;99.90;;;;;;6214734;23;20005;-82
2022/02/28 09:54:32;;;;;;;13.85;7.82;;;4.50;99.90;;;;;;6186658;23;20025;-81
2022/02/28 09:56:59;;;;;;;13.68;7.35;;;4.60;99.90;;;;;;6163320;23;20421;-82
2022/02/28 09:59:25;;;;;;;11.75;7.60;;;4.70;99.90;;;;;;6161207;23;20263;-81
2022/02/28 10:01:51;;;;;;;10.52;7.60;;;4.80;99.90;;;;;;6171366;23;20017;-81
2022/02/28 10:04:17;;;;;;;11.52;7.72;;;4.80;99.90;;;;;;6156303;23;20144;-82
2022/02/28 10:06:47;;;;;;;12.98;7.63;;;5.00;99.90;;;;;;6156775;23;20052;-82
2022/02/28 10:09:18;;;;;;;14.10;7.35;;;5.00;99.90;;;;;;6156966;23;20103;-82
2022/02/28 10:11:48;;;;;;;13.57;8.00;;;5.10;99.90;;;;;;6157740;23;20016;-83
2022/02/28 10:14:14;;;;;;;12.50;8.07;;;5.40;99.90;;;;;;6156358;23;20076;-83
2022/02/28 10:16:41;;;;;;;12.65;7.97;;;5.50;99.90;;;;;;6157329;23;20013;-82
2022/02/28 10:19:15;;;;;;;11.57;7.30;;;5.40;99.90;;;;;;6183917;23;20013;-82
2022/02/28 10:21:49;;;;;;;12.13;7.00;;;6.40;99.90;;;;;;6156396;23;20017;-82
2022/02/28 10:24:28;;;;;;;17.15;7.22;;;5.80;99.90;;;;;;6155928;23;20044;-82
2022/02/28 10:26:57;;;;;;;12.00;7.50;;;6.30;99.90;;;;;;6156663;23;20450;-82
2022/02/28 10:29:28;;;;;;;13.18;8.00;;;6.90;99.90;;;;;;6182510;23;20077;-83
2022/02/28 10:32:04;;;;;;;9.93;7.32;;;6.80;99.90;;;;;;6157195;23;20017;-82
2022/02/28 10:34:33;;;;;;;11.30;7.65;;;6.30;99.90;;;;;;6157911;23;20005;-82
2022/02/28 10:36:58;;;;;;;12.73;6.65;;;6.70;99.90;;;;;;6157017;23;20017;-83
2022/02/28 10:39:27;;;;;;;11.98;7.50;;;6.80;99.90;;;;;;6156826;23;20080;-81
2022/02/28 10:41:56;;;;;;;12.95;7.55;;;7.30;99.90;;;;;;6156792;23;20096;-84
2022/02/28 10:44:23;;;;;;;12.75;7.40;;;7.00;99.90;;;;;;6182453;23;20430;-82
2022/02/28 10:46:50;;;;;;;13.55;7.63;;;7.10;99.90;;;;;;6156311;23;20013;-84
2022/02/28 10:49:19;;;;;;;10.38;6.95;;;7.20;99.90;;;;;;6156509;23;20127;-82
2022/02/28 10:52:07;;;;;;;12.38;7.18;;;7.70;99.90;;;;;;6155948;23;20013;-82
2022/02/28 10:54:38;;;;;;;9.75;6.82;;;7.40;99.90;;;;;;6182823;23;20120;-80
2022/02/28 10:57:30;;;;;;;10.32;7.00;;;7.50;99.90;;;;;;6156646;23;20017;-84
2022/02/28 10:59:56;;;;;;;12.10;6.90;;;7.70;99.90;;;;;;6124885;23;20028;-82
2022/02/28 11:02:32;;;;;;;10.85;7.47;;;8.30;99.90;;;;;;6155770;23;20021;-84
2022/02/28 11:05:13;;;;;;;11.55;7.28;;;8.10;99.90;;;;;;6130056;23;20052;-83
2022/02/28 11:07:49;;;;;;;10.50;7.10;;;8.30;99.90;;;;;;6182617;23;20025;-82
2022/02/28 11:10:17;;;;;;;13.18;7.63;;;8.30;99.90;;;;;;6131645;23;20013;-81
2022/02/28 11:12:44;;;;;;;11.20;7.55;;;8.40;99.90;;;;;;6131816;23;20072;-83
2022/02/28 11:15:15;;;;;;;10.18;7.10;;;8.70;99.90;;;;;;6154496;23;20021;-81
2022/02/28 11:17:43;;;;;;;10.55;7.38;;;8.60;99.90;;;;;;6154850;23;20401;-82
2022/02/28 11:20:12;;;;;;;12.88;6.97;;;8.70;99.90;;;;;;6154365;23;20104;-80
2022/02/28 11:22:39;;;;;;;10.70;7.13;;;8.90;99.90;;;;;;6155048;23;20083;-80
2022/02/28 11:25:09;;;;;;;11.63;7.70;;;8.90;99.90;;;;;;6131530;23;20013;-80
2022/02/28 11:27:38;;;;;;;13.07;7.05;;;9.20;99.90;;;;;;6131094;23;20013;-85
2022/02/28 11:30:09;;;;;;;14.98;7.47;;;9.30;99.90;;;;;;6154608;23;20088;-81
2022/02/28 11:32:35;;;;;;;10.48;7.28;;;9.30;99.90;;;;;;6154508;23;20274;-82
2022/02/28 11:35:38;;;;;;;10.05;6.97;;;9.60;99.90;;;;;;6131575;23;20021;-83
2022/02/28 11:38:15;;;;;;;14.20;7.63;;;9.70;99.90;;;;;;6131742;23;20056;-85
2022/02/28 11:40:58;;;;;;;10.73;7.10;;;9.80;99.90;;;;;;6130826;23;20100;-83
2022/02/28 11:43:29;;;;;;;10.25;7.10;;;10.00;99.90;;;;;;6178748;23;20449;-82
2022/02/28 11:46:22;;;;;;;10.68;6.00;;;9.90;99.90;;;;;;6131097;23;20013;-83
2022/02/28 11:48:54;;;;;;;9.18;6.30;;;10.20;99.90;;;;;;6090236;23;20053;-81
2022/02/28 11:51:34;;;;;;;9.90;6.57;;;10.30;99.90;;;;;;6065438;23;20102;-81
2022/02/28 11:54:22;;;;;;;11.35;6.10;;;10.30;99.90;;;;;;6041886;23;20117;-81
2022/02/28 11:56:50;;;;;;;9.00;6.53;;;10.60;99.90;;;;;;6091394;23;20024;-82
2022/02/28 11:59:22;;;;;;;10.77;6.53;;;10.60;99.90;;;;;;6042143;23;20802;-80
2022/02/28 12:01:47;;;;;;;8.95;6.82;;;10.70;99.90;;;;;;6058143;23;20026;-82
2022/02/28 12:04:19;;;;;;;8.50;5.63;;;10.80;99.90;;;;;;6094193;23;20461;-81
2022/02/28 12:07:02;;;;;;;9.50;6.18;;;10.80;99.90;;;;;;6071517;23;20052;-79
2022/02/28 12:09:33;;;;;;;10.30;7.22;;;10.90;99.90;;;;;;6095715;23;20099;-81
2022/02/28 12:12:23;;;;;;;9.52;6.80;;;11.20;99.90;;;;;;6094777;23;20018;-81
2022/02/28 12:14:57;;;;;;;7.30;4.38;;;11.20;99.90;;;;;;6069859;23;20021;-77
2022/02/28 12:17:56;;;;;;;11.25;5.07;;;11.90;99.90;;;;;;6096436;23;20108;-77
2022/02/28 12:20:23;;;;;;;11.50;7.07;;;12.30;99.90;;;;;;6008448;23;20107;-79
2022/02/28 12:22:52;;;;;;;10.57;5.65;;;12.30;99.90;;;;;;5986043;23;20027;-80
2022/02/28 12:25:34;;;;;;;8.77;6.40;;;13.10;99.90;;;;;;5996660;23;20018;-80
2022/02/28 12:28:34;;;;;;;10.00;6.68;;;12.80;99.90;;;;;;6038794;23;20695;-81
2022/02/28 12:31:36;;;;;;;10.77;7.05;;;12.40;99.90;;;;;;5954453;24;20027;-81
2022/02/28 12:34:05;;;;;;;10.00;7.00;;;12.60;99.90;;;;;;5874197;24;20021;-80
2022/02/28 12:36:31;;;;;;;9.23;6.88;;;12.80;99.90;;;;;;5871859;24;20208;-81
2022/02/28 12:39:00;;;;;;;8.38;6.65;;;13.00;99.90;;;;;;5872209;24;20444;-81
2022/02/28 12:41:30;;;;;;;9.57;6.78;;;12.80;99.90;;;;;;5872225;24;20347;-81
2022/02/28 12:43:59;;;;;;;8.13;6.22;;;13.00;99.90;;;;;;5869935;24;20097;-81
2022/02/28 12:46:42;;;;;;;7.90;6.45;;;12.90;99.90;;;;;;5871309;24;20527;-81